Baker City Municipal Airport
KBKE : now visible

Airfield :











YOU CAN JOIN US ON...

 
LOGIN :

Register | Disclaimer

   EN    FR    IT 

 









Legend :    VFR   Marginal VFR   IFR   Intensive IFR   Very Intensive IFR
Visi :
Ceiling :
>= 8 km
>= 3000ft
5 to 8 km
1000 to 3000 ft
1500m to 5 km
500 to 1000 ft
800 to 1500m
200 to 500 ft
< 800m
< 200 ft
Symbols :   Thunderstorms  Fog  Heavy snow  Heavy precipitations  Wind > 20 kt






- Airport Elevation : 3373 ft


KBKE - Baker City Municipal

CURRENT METAR :
  • 162153Z AUTO 25009KT 10SM FEW049 SCT060 OVC075 16/M02 A2990 RMK AO2 SLP120 T01611017

EXPIRED METARs :
  • 162053Z AUTO 00000KT 10SM BKN120 16/M03 A2992 RMK AO2 SLP127 T01611033 56024
  • 161953Z AUTO 35007KT 10SM BKN110 16/M01 A2994 RMK AO2 SLP133 T01611011
  • 161853Z AUTO VRB03KT 10SM OVC110 14/M02 A2997 RMK AO2 SLP147 T01391017
  • 161753Z AUTO 19006KT 10SM OVC110 13/M02 A3000 RMK AO2 SLP156 T01331017 10139 20006 58021

TAF KBKE
Valid from the 16 at 18:00 until the 17 at 18:00 UTC


161739Z 1618/1718 32005KT P6SM BKN100 OVC200
FM170100 32012G22KT P6SM -SHRA BKN050 OVC100
FM170500 32010G18KT 6SM -SHRA OVC030
FM171000 32011KT P6SM -SHRA OVC025
FM171600 33015G25KT P6SM OVC030
KZLC FIR / North America



MET'MAP, your aeronautical weather chart ! - Copyright ORBIFLY December 2007 - Disclaimer

ORBIFLY MET'MAP TEAM :

Programming & Development : Alexandra Zaïnal
Original concept : Baudouin d'Aumeries
Technical & hardware support : Manuel Goepfert
Assistance : Marc-Olivier Méhu




SOURCES & CREDITS :

   NOAA       Earth
Advisory